Time;durP1;ratioP1;P1;durP2;ratioP2;P2;SDS_P1;SDS_P2;PMS_P1;PMS_P2;Temp;Humidity;BMP_temperature;BMP_pressure;BME280_temperature;BME280_humidity;BME280_pressure;Samples;Min_cycle;Max_cycle;Signal;HPM_P1;HPM_P2
2022/10/25 00:04:21;;;;;;;1.33;0.40;;;;;;;;;;10482635;28;20400;-78
2022/10/25 00:09:26;;;;;;;1.08;0.28;;;;;;;;;;10492528;28;20279;-75
2022/10/25 00:14:29;;;;;;;0.80;0.40;;;;;;;;;;10496908;28;20111;-77
2022/10/25 00:19:33;;;;;;;2.95;0.50;;;;;;;;;;10497343;28;20382;-79
2022/10/25 00:24:37;;;;;;;1.65;0.30;;;;;;;;;;10488038;28;20094;-79
2022/10/25 00:29:41;;;;;;;0.90;0.28;;;;;;;;;;10486690;28;20053;-78
2022/10/25 00:34:44;;;;;;;0.70;0.30;;;;;;;;;;10473741;28;20119;-78
2022/10/25 00:39:49;;;;;;;1.15;0.60;;;;;;;;;;10495096;28;20040;-78
2022/10/25 00:44:54;;;;;;;1.15;0.30;;;;;;;;;;10500120;28;20070;-77
2022/10/25 00:50:02;;;;;;;2.83;0.43;;;;;;;;;;10484186;28;20040;-77
2022/10/25 00:55:09;;;;;;;2.53;0.60;;;;;;;;;;10490234;28;20108;-77
2022/10/25 01:00:13;;;;;;;1.70;0.47;;;;;;;;;;10490965;28;20045;-79
2022/10/25 01:05:17;;;;;;;4.97;0.80;;;;;;;;;;10465323;28;20066;-75
2022/10/25 01:10:22;;;;;;;4.68;0.88;;;;;;;;;;10465364;28;20110;-80
2022/10/25 01:15:30;;;;;;;2.78;0.50;;;;;;;;;;10489238;28;20035;-79
2022/10/25 01:20:59;;;;;;;2.00;0.47;;;;;;;;;;10491921;28;20048;-78
2022/10/25 01:26:33;;;;;;;3.03;0.63;;;;;;;;;;10424655;28;20036;-78
2022/10/25 01:31:44;;;;;;;1.00;0.30;;;;;;;;;;10471798;28;20036;-77
2022/10/25 01:36:57;;;;;;;2.50;0.30;;;;;;;;;;10467527;28;20535;-77
2022/10/25 01:42:06;;;;;;;1.63;0.40;;;;;;;;;;10466426;28;20048;-80
2022/10/25 01:47:15;;;;;;;2.70;0.40;;;;;;;;;;10456722;28;20032;-77
2022/10/25 01:52:21;;;;;;;2.00;0.50;;;;;;;;;;10445245;28;20086;-77
2022/10/25 01:57:40;;;;;;;3.10;0.60;;;;;;;;;;10465491;28;20040;-78
2022/10/25 02:03:01;;;;;;;1.83;0.43;;;;;;;;;;10478262;28;20040;-77
2022/10/25 02:08:09;;;;;;;3.05;0.80;;;;;;;;;;10457283;28;20045;-78
2022/10/25 02:13:21;;;;;;;2.42;0.65;;;;;;;;;;10465823;28;20056;-78
2022/10/25 02:18:29;;;;;;;1.48;0.25;;;;;;;;;;10478548;28;20033;-78
2022/10/25 02:23:39;;;;;;;1.52;0.38;;;;;;;;;;10467684;28;20039;-80
2022/10/25 02:28:42;;;;;;;3.03;0.60;;;;;;;;;;10483991;28;20047;-77
2022/10/25 02:33:48;;;;;;;0.98;0.30;;;;;;;;;;10465986;28;20078;-79
2022/10/25 02:38:53;;;;;;;1.30;0.50;;;;;;;;;;10479057;28;20053;-77
2022/10/25 02:43:56;;;;;;;1.48;0.40;;;;;;;;;;10483697;28;20044;-78
2022/10/25 02:49:00;;;;;;;2.15;0.47;;;;;;;;;;10450167;28;20048;-76
2022/10/25 02:54:04;;;;;;;1.92;0.50;;;;;;;;;;10479640;28;20036;-79
2022/10/25 02:59:07;;;;;;;4.43;0.93;;;;;;;;;;10463502;28;20052;-79
2022/10/25 03:04:12;;;;;;;1.25;0.47;;;;;;;;;;10482124;28;20612;-78
2022/10/25 03:09:15;;;;;;;2.78;0.40;;;;;;;;;;10477222;28;20056;-78
2022/10/25 03:14:18;;;;;;;2.53;0.30;;;;;;;;;;10461846;28;20045;-77
2022/10/25 03:19:23;;;;;;;1.13;0.32;;;;;;;;;;10487490;28;20097;-78
2022/10/25 03:24:26;;;;;;;0.98;0.45;;;;;;;;;;10469238;28;20044;-79
2022/10/25 03:29:30;;;;;;;1.58;0.60;;;;;;;;;;10487057;28;20040;-78
2022/10/25 03:34:34;;;;;;;2.30;0.40;;;;;;;;;;10486209;28;20048;-78
2022/10/25 03:39:37;;;;;;;2.08;0.45;;;;;;;;;;10459363;28;20051;-79
2022/10/25 03:44:41;;;;;;;3.00;0.40;;;;;;;;;;10486906;28;20040;-80
2022/10/25 03:49:45;;;;;;;3.10;0.40;;;;;;;;;;10497443;28;20087;-80
2022/10/25 03:54:49;;;;;;;1.85;0.20;;;;;;;;;;10496583;28;20668;-81
2022/10/25 03:59:52;;;;;;;2.67;0.30;;;;;;;;;;10488736;28;20040;-80
2022/10/25 04:04:56;;;;;;;2.13;0.35;;;;;;;;;;10515464;28;20044;-80
2022/10/25 04:10:00;;;;;;;0.50;0.22;;;;;;;;;;10495454;28;20537;-78
2022/10/25 04:15:03;;;;;;;0.30;0.20;;;;;;;;;;10463255;28;20045;-78
2022/10/25 04:20:09;;;;;;;0.93;0.30;;;;;;;;;;10461533;28;20044;-79
2022/10/25 04:25:12;;;;;;;1.55;0.30;;;;;;;;;;10494941;28;20047;-78
2022/10/25 04:30:16;;;;;;;1.15;0.30;;;;;;;;;;10468264;28;20467;-78
2022/10/25 04:35:20;;;;;;;1.38;0.40;;;;;;;;;;10497743;28;20470;-81
2022/10/25 04:40:24;;;;;;;0.93;0.32;;;;;;;;;;10490754;28;20063;-80
2022/10/25 04:45:27;;;;;;;0.63;0.22;;;;;;;;;;10498332;28;20419;-80
2022/10/25 04:50:32;;;;;;;1.23;0.40;;;;;;;;;;10473851;28;20067;-80
2022/10/25 04:55:35;;;;;;;1.75;0.40;;;;;;;;;;10487990;28;20068;-80
2022/10/25 05:00:39;;;;;;;0.65;0.20;;;;;;;;;;10487907;28;20051;-80
2022/10/25 05:05:43;;;;;;;2.28;0.57;;;;;;;;;;10489341;28;20048;-81
2022/10/25 05:10:53;;;;;;;1.20;0.35;;;;;;;;;;10486589;28;20519;-80
2022/10/25 05:15:57;;;;;;;1.55;0.30;;;;;;;;;;10485848;28;20546;-81
2022/10/25 05:21:04;;;;;;;2.22;0.35;;;;;;;;;;10476298;28;20052;-80
2022/10/25 05:26:09;;;;;;;2.10;0.55;;;;;;;;;;10498962;28;20500;-80
2022/10/25 05:31:14;;;;;;;0.90;0.37;;;;;;;;;;10484127;28;20055;-80
2022/10/25 05:36:20;;;;;;;0.63;0.30;;;;;;;;;;10466176;28;20060;-81
2022/10/25 05:41:23;;;;;;;2.83;0.40;;;;;;;;;;10470603;28;20040;-80
2022/10/25 05:46:26;;;;;;;0.75;0.38;;;;;;;;;;10495239;28;20059;-80
2022/10/25 05:51:32;;;;;;;0.93;0.20;;;;;;;;;;10479620;28;20495;-80
2022/10/25 05:56:38;;;;;;;1.45;0.40;;;;;;;;;;10487126;28;20040;-79
2022/10/25 06:01:43;;;;;;;3.83;0.40;;;;;;;;;;10468916;28;20068;-80
2022/10/25 06:06:50;;;;;;;0.77;0.30;;;;;;;;;;10473273;28;20052;-79
2022/10/25 06:11:54;;;;;;;0.60;0.60;;;;;;;;;;10486485;28;20047;-80
2022/10/25 06:16:57;;;;;;;1.95;0.30;;;;;;;;;;10484294;28;20047;-81
2022/10/25 06:22:02;;;;;;;1.13;0.40;;;;;;;;;;10491375;28;20045;-79
2022/10/25 06:27:05;;;;;;;1.35;0.47;;;;;;;;;;10494813;28;20412;-79
2022/10/25 06:32:08;;;;;;;0.50;0.30;;;;;;;;;;10485213;28;20048;-78
2022/10/25 06:37:14;;;;;;;2.10;0.57;;;;;;;;;;10488480;28;20036;-78
2022/10/25 06:42:17;;;;;;;1.35;0.50;;;;;;;;;;10486941;28;20036;-79
2022/10/25 06:47:20;;;;;;;0.70;0.30;;;;;;;;;;10472171;28;20036;-80
2022/10/25 06:52:25;;;;;;;1.38;0.20;;;;;;;;;;10486293;28;20040;-80
2022/10/25 06:57:28;;;;;;;0.85;0.30;;;;;;;;;;10495013;28;20044;-81
2022/10/25 07:02:31;;;;;;;1.10;0.57;;;;;;;;;;10494343;28;20052;-81
2022/10/25 07:07:36;;;;;;;1.10;0.30;;;;;;;;;;10477300;28;20067;-81
2022/10/25 07:12:39;;;;;;;1.15;0.45;;;;;;;;;;10501959;28;20036;-80
2022/10/25 07:17:42;;;;;;;1.13;0.35;;;;;;;;;;10509593;28;20040;-81
2022/10/25 07:22:49;;;;;;;1.65;0.30;;;;;;;;;;10474445;28;20032;-81
2022/10/25 07:27:52;;;;;;;1.40;0.32;;;;;;;;;;10473707;28;20037;-80
2022/10/25 07:32:55;;;;;;;1.70;0.45;;;;;;;;;;10490833;28;20040;-80
2022/10/25 07:38:03;;;;;;;0.57;0.38;;;;;;;;;;10483160;28;20045;-81
2022/10/25 07:43:06;;;;;;;1.02;0.40;;;;;;;;;;10503594;28;20048;-80
2022/10/25 07:48:09;;;;;;;3.28;0.40;;;;;;;;;;10464780;28;20032;-80
2022/10/25 07:53:14;;;;;;;1.83;0.52;;;;;;;;;;10479104;28;20527;-80
2022/10/25 07:58:17;;;;;;;1.60;0.63;;;;;;;;;;10503013;28;20042;-80
2022/10/25 08:03:20;;;;;;;3.00;0.45;;;;;;;;;;10491543;28;20052;-80
2022/10/25 08:08:25;;;;;;;1.95;0.60;;;;;;;;;;10497065;28;20412;-81
2022/10/25 08:13:28;;;;;;;4.72;1.02;;;;;;;;;;10488787;28;20056;-81
2022/10/25 08:18:33;;;;;;;3.17;0.70;;;;;;;;;;10487245;28;20032;-80
2022/10/25 08:23:37;;;;;;;3.53;0.63;;;;;;;;;;10462236;28;20044;-81
2022/10/25 08:28:40;;;;;;;2.80;0.50;;;;;;;;;;10478631;28;20112;-80
2022/10/25 08:33:44;;;;;;;3.38;1.13;;;;;;;;;;10477509;28;20045;-80
2022/10/25 08:38:48;;;;;;;1.95;0.50;;;;;;;;;;10494495;28;20044;-80
2022/10/25 08:44:16;;;;;;;3.33;0.82;;;;;;;;;;10488186;28;20416;-80
2022/10/25 08:49:25;;;;;;;3.45;0.57;;;;;;;;;;10487248;28;20068;-81
2022/10/25 08:54:34;;;;;;;3.47;0.75;;;;;;;;;;10461118;28;20287;-80
2022/10/25 08:59:41;;;;;;;2.22;0.47;;;;;;;;;;10487606;28;20496;-81
2022/10/25 09:04:45;;;;;;;1.15;0.40;;;;;;;;;;10486710;28;20047;-81
2022/10/25 09:09:55;;;;;;;2.13;0.70;;;;;;;;;;10471176;28;20044;-81
2022/10/25 09:15:08;;;;;;;1.75;0.55;;;;;;;;;;10494461;28;20415;-81
2022/10/25 09:20:19;;;;;;;3.42;0.65;;;;;;;;;;10497363;28;20040;-81
2022/10/25 09:25:30;;;;;;;2.53;0.93;;;;;;;;;;10487732;28;20075;-81
2022/10/25 09:30:37;;;;;;;2.95;0.85;;;;;;;;;;10487852;28;20048;-81
2022/10/25 09:35:44;;;;;;;4.00;0.55;;;;;;;;;;10497126;28;20043;-81
2022/10/25 09:40:52;;;;;;;2.28;0.40;;;;;;;;;;10493844;28;20108;-80
2022/10/25 09:45:59;;;;;;;1.02;0.40;;;;;;;;;;10493898;28;20056;-80
2022/10/25 09:51:11;;;;;;;3.25;0.68;;;;;;;;;;10472520;28;20733;-81
2022/10/25 09:56:16;;;;;;;2.92;0.73;;;;;;;;;;10499975;28;20399;-80
2022/10/25 10:01:23;;;;;;;1.75;0.40;;;;;;;;;;10495962;28;20079;-80
2022/10/25 10:06:33;;;;;;;1.33;0.55;;;;;;;;;;10490224;28;20071;-80
2022/10/25 10:11:42;;;;;;;1.70;0.30;;;;;;;;;;10459540;28;20067;-80
2022/10/25 10:16:49;;;;;;;1.33;0.43;;;;;;;;;;10481188;28;20036;-82
2022/10/25 10:21:55;;;;;;;4.13;0.63;;;;;;;;;;10475155;28;20052;-80
2022/10/25 10:27:02;;;;;;;1.83;0.63;;;;;;;;;;10477352;28;20036;-79
2022/10/25 10:32:20;;;;;;;1.58;0.50;;;;;;;;;;10490238;28;20066;-80
2022/10/25 10:37:25;;;;;;;1.80;0.70;;;;;;;;;;10478982;28;20040;-80
2022/10/25 10:42:35;;;;;;;1.10;0.60;;;;;;;;;;10495693;28;20040;-78
2022/10/25 10:47:42;;;;;;;4.82;0.55;;;;;;;;;;10487493;28;20071;-80
2022/10/25 10:52:47;;;;;;;1.65;0.47;;;;;;;;;;10462318;28;20049;-81
2022/10/25 10:57:52;;;;;;;2.53;0.30;;;;;;;;;;10471005;28;20240;-79
2022/10/25 11:02:56;;;;;;;2.80;0.70;;;;;;;;;;10483685;28;20044;-80
2022/10/25 11:08:01;;;;;;;0.80;0.50;;;;;;;;;;10483260;28;20033;-81
2022/10/25 11:13:11;;;;;;;1.35;0.47;;;;;;;;;;10479423;28;20036;-81
2022/10/25 11:18:16;;;;;;;1.13;0.45;;;;;;;;;;10481710;28;20036;-80
2022/10/25 11:23:26;;;;;;;0.67;0.40;;;;;;;;;;10480412;28;20266;-79
2022/10/25 11:28:42;;;;;;;2.40;0.68;;;;;;;;;;10481485;28;20051;-81
2022/10/25 11:33:59;;;;;;;1.20;0.50;;;;;;;;;;10485419;28;20044;-81
2022/10/25 11:39:12;;;;;;;6.25;1.00;;;;;;;;;;10504367;28;20041;-81
2022/10/25 11:44:41;;;;;;;0.45;0.30;;;;;;;;;;10494293;28;20040;-82
2022/10/25 11:49:58;;;;;;;3.45;0.80;;;;;;;;;;10485265;28;20036;-80
2022/10/25 11:55:13;;;;;;;1.48;0.40;;;;;;;;;;10490430;28;20053;-78
2022/10/25 12:00:19;;;;;;;1.27;0.30;;;;;;;;;;10507171;28;20043;-81
2022/10/25 12:05:29;;;;;;;1.42;0.40;;;;;;;;;;10498998;28;20052;-82
2022/10/25 12:10:38;;;;;;;2.00;0.30;;;;;;;;;;10483496;28;20068;-81
2022/10/25 12:15:45;;;;;;;2.00;0.50;;;;;;;;;;10449578;28;20044;-79
2022/10/25 12:20:49;;;;;;;1.70;0.30;;;;;;;;;;10478963;28;20048;-79
2022/10/25 12:25:56;;;;;;;2.70;0.57;;;;;;;;;;10489013;28;20057;-80
2022/10/25 12:31:12;;;;;;;1.92;0.40;;;;;;;;;;10469750;28;20071;-80
2022/10/25 12:36:23;;;;;;;2.58;0.40;;;;;;;;;;10473956;28;20048;-81
2022/10/25 12:41:29;;;;;;;2.90;0.75;;;;;;;;;;10471278;28;20041;-80
2022/10/25 12:47:09;;;;;;;0.38;0.20;;;;;;;;;;10475951;28;20063;-81
2022/10/25 12:52:32;;;;;;;2.15;0.55;;;;;;;;;;10483383;28;20040;-80
2022/10/25 12:57:44;;;;;;;2.00;0.40;;;;;;;;;;10478258;28;20078;-78
2022/10/25 13:03:24;;;;;;;1.73;0.50;;;;;;;;;;10486414;28;20100;-80
2022/10/25 13:08:29;;;;;;;2.90;0.50;;;;;;;;;;10494060;28;20036;-81
2022/10/25 13:13:34;;;;;;;1.27;0.40;;;;;;;;;;10478745;28;20488;-79
2022/10/25 13:18:44;;;;;;;2.22;0.50;;;;;;;;;;10459643;28;20471;-80
2022/10/25 13:24:09;;;;;;;2.45;0.57;;;;;;;;;;10473911;28;20040;-80
2022/10/25 13:29:46;;;;;;;2.33;0.77;;;;;;;;;;10486453;28;20210;-80
2022/10/25 13:34:51;;;;;;;2.20;0.55;;;;;;;;;;10476822;28;20059;-80
2022/10/25 13:39:54;;;;;;;0.60;0.30;;;;;;;;;;10473416;28;20063;-80
2022/10/25 13:45:05;;;;;;;2.58;0.50;;;;;;;;;;10476918;28;20094;-80
2022/10/25 13:50:18;;;;;;;3.55;0.60;;;;;;;;;;10479384;28;20040;-81
2022/10/25 13:55:23;;;;;;;4.10;0.73;;;;;;;;;;10473851;28;20064;-80
2022/10/25 14:00:36;;;;;;;0.85;0.30;;;;;;;;;;10494765;28;20052;-80
2022/10/25 14:06:21;;;;;;;1.23;0.40;;;;;;;;;;10493435;28;20049;-80
2022/10/25 14:11:34;;;;;;;1.95;0.43;;;;;;;;;;10485800;28;20060;-80
2022/10/25 14:16:43;;;;;;;1.60;0.50;;;;;;;;;;10467207;28;20056;-79
2022/10/25 14:21:50;;;;;;;2.00;0.57;;;;;;;;;;10472290;28;20049;-78
2022/10/25 14:26:56;;;;;;;3.08;0.50;;;;;;;;;;10484091;28;20059;-78
2022/10/25 14:31:59;;;;;;;3.13;0.43;;;;;;;;;;10494140;28;20048;-80
2022/10/25 14:37:04;;;;;;;2.55;0.40;;;;;;;;;;10467310;28;20048;-78
2022/10/25 14:42:16;;;;;;;0.75;0.30;;;;;;;;;;10492772;28;20411;-79
2022/10/25 14:47:28;;;;;;;2.83;0.30;;;;;;;;;;10483128;28;20048;-78
2022/10/25 14:52:33;;;;;;;0.95;0.20;;;;;;;;;;10491866;28;20047;-79
2022/10/25 14:57:36;;;;;;;0.55;0.30;;;;;;;;;;10491883;28;20052;-78
2022/10/25 15:02:40;;;;;;;1.27;0.20;;;;;;;;;;10492119;28;20040;-78
2022/10/25 15:07:46;;;;;;;0.60;0.28;;;;;;;;;;10495968;28;20052;-79
2022/10/25 15:12:51;;;;;;;1.02;0.47;;;;;;;;;;10493712;28;20044;-79
2022/10/25 15:17:55;;;;;;;0.13;0.10;;;;;;;;;;10472362;28;21445;-79
2022/10/25 15:23:06;;;;;;;0.10;0.03;;;;;;;;;;10475938;28;20059;-79
2022/10/25 15:28:10;;;;;;;0.25;0.17;;;;;;;;;;10498890;28;20146;-78
2022/10/25 15:33:17;;;;;;;0.35;0.20;;;;;;;;;;10493858;28;20512;-78
2022/10/25 15:38:27;;;;;;;0.43;0.10;;;;;;;;;;10485991;28;20048;-78
2022/10/25 15:43:39;;;;;;;0.10;0.10;;;;;;;;;;10475299;28;20052;-78
2022/10/25 15:48:43;;;;;;;0.55;0.10;;;;;;;;;;10501804;28;20524;-77
2022/10/25 15:53:47;;;;;;;0.77;0.15;;;;;;;;;;10510345;28;20381;-77
2022/10/25 15:58:51;;;;;;;1.25;0.17;;;;;;;;;;10483761;28;20045;-79
2022/10/25 16:03:55;;;;;;;0.47;0.10;;;;;;;;;;10492935;28;20420;-75
2022/10/25 16:08:59;;;;;;;1.00;0.43;;;;;;;;;;10484620;28;20056;-79
2022/10/25 16:14:03;;;;;;;0.80;0.20;;;;;;;;;;10484390;28;20052;-79
2022/10/25 16:19:09;;;;;;;0.32;0.20;;;;;;;;;;10468088;28;20202;-78
2022/10/25 16:24:14;;;;;;;0.95;0.20;;;;;;;;;;10461182;28;20051;-79
2022/10/25 16:29:19;;;;;;;1.92;0.30;;;;;;;;;;10493600;28;20053;-76
2022/10/25 16:34:22;;;;;;;0.15;0.15;;;;;;;;;;10493840;28;20048;-78
2022/10/25 16:39:27;;;;;;;1.23;0.32;;;;;;;;;;10502126;28;20045;-78
2022/10/25 16:44:30;;;;;;;0.43;0.10;;;;;;;;;;10470498;28;20040;-78
2022/10/25 16:49:33;;;;;;;0.20;0.20;;;;;;;;;;10458039;28;20040;-79
2022/10/25 16:54:38;;;;;;;1.80;0.32;;;;;;;;;;10475056;28;20554;-75
2022/10/25 16:59:41;;;;;;;0.63;0.47;;;;;;;;;;10449021;28;20044;-77
2022/10/25 17:04:44;;;;;;;2.00;0.95;;;;;;;;;;10474269;28;20055;-77
2022/10/25 17:09:49;;;;;;;0.90;0.60;;;;;;;;;;10496426;28;20036;-77
2022/10/25 17:14:52;;;;;;;3.88;0.70;;;;;;;;;;10476773;28;20398;-77
2022/10/25 17:19:56;;;;;;;1.52;1.05;;;;;;;;;;10475797;28;20047;-77
2022/10/25 17:25:00;;;;;;;1.58;0.90;;;;;;;;;;10487443;28;20062;-76
2022/10/25 17:30:05;;;;;;;1.20;1.00;;;;;;;;;;10463977;28;20044;-79
2022/10/25 17:35:08;;;;;;;2.00;1.23;;;;;;;;;;10487918;28;20048;-78
2022/10/25 17:40:14;;;;;;;3.20;1.63;;;;;;;;;;10476607;28;20059;-78
2022/10/25 17:45:17;;;;;;;4.93;1.70;;;;;;;;;;10468006;28;20424;-78
2022/10/25 17:50:21;;;;;;;3.80;1.80;;;;;;;;;;10486464;28;20051;-77
2022/10/25 17:55:27;;;;;;;4.18;2.30;;;;;;;;;;10495966;28;20845;-78
2022/10/25 18:00:34;;;;;;;4.10;2.47;;;;;;;;;;10469564;28;20571;-79
2022/10/25 18:05:39;;;;;;;5.03;3.15;;;;;;;;;;10477036;28;20047;-77
2022/10/25 18:10:43;;;;;;;4.40;2.75;;;;;;;;;;10475849;28;20747;-78
2022/10/25 18:15:48;;;;;;;4.88;2.75;;;;;;;;;;10487850;28;20041;-79
2022/10/25 18:20:51;;;;;;;5.97;2.58;;;;;;;;;;10478508;28;20071;-79
2022/10/25 18:25:56;;;;;;;5.68;3.45;;;;;;;;;;10468451;28;20583;-78
2022/10/25 18:31:00;;;;;;;6.85;2.67;;;;;;;;;;10480387;28;20045;-79
2022/10/25 18:36:05;;;;;;;6.15;3.03;;;;;;;;;;10485767;28;20040;-78
2022/10/25 18:41:15;;;;;;;7.25;2.90;;;;;;;;;;10483133;28;20082;-78
2022/10/25 18:46:19;;;;;;;3.55;2.13;;;;;;;;;;10477695;28;20779;-78
2022/10/25 18:51:23;;;;;;;2.08;1.20;;;;;;;;;;10479644;28;20036;-78
2022/10/25 18:56:29;;;;;;;2.38;1.00;;;;;;;;;;10475419;28;20102;-78
2022/10/25 19:01:33;;;;;;;1.80;0.95;;;;;;;;;;10473966;28;20248;-78
2022/10/25 19:06:36;;;;;;;1.70;0.73;;;;;;;;;;10486285;28;20493;-79
2022/10/25 19:11:41;;;;;;;1.45;0.65;;;;;;;;;;10474462;28;20068;-78
2022/10/25 19:16:44;;;;;;;1.42;0.80;;;;;;;;;;10483125;28;20040;-78
2022/10/25 19:21:48;;;;;;;4.35;0.93;;;;;;;;;;10486831;28;20037;-79
2022/10/25 19:26:53;;;;;;;5.35;0.90;;;;;;;;;;10470695;28;20052;-77
2022/10/25 19:31:56;;;;;;;1.85;0.93;;;;;;;;;;10489882;28;20056;-77
2022/10/25 19:37:03;;;;;;;1.42;0.73;;;;;;;;;;10488614;28;20043;-77
2022/10/25 19:42:10;;;;;;;;;;;;;;;;;;10484077;28;20045;-78
2022/10/25 19:47:14;;;;;;;1.50;0.80;;;;;;;;;;10487801;28;19927;-77
2022/10/25 19:52:17;;;;;;;2.35;1.00;;;;;;;;;;10482492;28;20039;-80
2022/10/25 19:57:21;;;;;;;3.03;1.38;;;;;;;;;;10465712;28;20531;-78
2022/10/25 20:02:25;;;;;;;5.07;1.95;;;;;;;;;;10473872;28;20036;-79
2022/10/25 20:07:28;;;;;;;3.97;1.90;;;;;;;;;;10487105;28;20798;-78
2022/10/25 20:12:33;;;;;;;4.72;1.65;;;;;;;;;;10461331;28;20100;-78
2022/10/25 20:17:36;;;;;;;10.27;2.53;;;;;;;;;;10455704;28;20047;-78
2022/10/25 20:22:39;;;;;;;4.57;2.35;;;;;;;;;;10483412;28;20041;-79
2022/10/25 20:27:44;;;;;;;6.57;2.95;;;;;;;;;;10486707;28;20571;-77
2022/10/25 20:32:47;;;;;;;5.25;2.75;;;;;;;;;;10477051;28;20516;-79
2022/10/25 20:37:51;;;;;;;8.80;2.47;;;;;;;;;;10480104;28;20319;-76
2022/10/25 20:42:56;;;;;;;6.35;2.72;;;;;;;;;;10493226;28;20591;-80
2022/10/25 20:48:00;;;;;;;4.80;2.50;;;;;;;;;;10491326;28;20710;-77
2022/10/25 20:53:03;;;;;;;5.68;2.30;;;;;;;;;;10496184;28;20403;-77
2022/10/25 20:58:13;;;;;;;6.25;3.00;;;;;;;;;;10498353;28;20045;-77
2022/10/25 21:03:16;;;;;;;4.40;2.90;;;;;;;;;;10484006;28;20036;-77
2022/10/25 21:08:21;;;;;;;4.50;2.60;;;;;;;;;;10485336;28;20052;-79
2022/10/25 21:13:28;;;;;;;5.13;2.97;;;;;;;;;;10479055;28;20033;-77
2022/10/25 21:18:32;;;;;;;6.22;2.55;;;;;;;;;;10469032;28;20707;-79
2022/10/25 21:23:35;;;;;;;7.15;2.80;;;;;;;;;;10484917;28;20147;-80
2022/10/25 21:28:41;;;;;;;4.07;2.15;;;;;;;;;;10477446;28;20055;-80
2022/10/25 21:33:46;;;;;;;4.90;2.20;;;;;;;;;;10483500;28;20040;-77
2022/10/25 21:38:51;;;;;;;4.53;1.85;;;;;;;;;;10486514;28;20417;-78
2022/10/25 21:43:57;;;;;;;4.43;2.05;;;;;;;;;;10466376;28;20052;-80
2022/10/25 21:49:00;;;;;;;3.73;2.07;;;;;;;;;;10468369;28;20068;-79
2022/10/25 21:54:04;;;;;;;2.92;1.25;;;;;;;;;;10485151;28;20778;-79
2022/10/25 21:59:08;;;;;;;2.13;1.23;;;;;;;;;;10485609;28;20052;-80
2022/10/25 22:04:12;;;;;;;2.42;1.10;;;;;;;;;;10483707;28;20033;-79
2022/10/25 22:09:15;;;;;;;2.58;1.00;;;;;;;;;;10492134;28;20056;-79
2022/10/25 22:14:19;;;;;;;2.67;1.27;;;;;;;;;;10468006;28;20047;-79
2022/10/25 22:19:23;;;;;;;1.30;0.82;;;;;;;;;;10486206;28;20039;-79
2022/10/25 22:24:26;;;;;;;3.53;1.13;;;;;;;;;;10502270;28;20253;-79
2022/10/25 22:29:31;;;;;;;1.75;1.08;;;;;;;;;;10483644;28;20098;-79
2022/10/25 22:34:34;;;;;;;6.25;1.42;;;;;;;;;;10496361;28;20033;-79
2022/10/25 22:39:37;;;;;;;1.83;1.50;;;;;;;;;;10510155;28;20048;-78
2022/10/25 22:44:42;;;;;;;3.42;1.60;;;;;;;;;;10492674;28;20412;-79
2022/10/25 22:49:46;;;;;;;2.88;1.23;;;;;;;;;;10509658;28;20037;-79
2022/10/25 22:54:52;;;;;;;5.13;1.30;;;;;;;;;;10502002;28;20038;-78
2022/10/25 22:59:57;;;;;;;3.72;1.42;;;;;;;;;;10493837;28;20053;-79
2022/10/25 23:05:00;;;;;;;1.15;0.85;;;;;;;;;;10492530;28;20043;-79
2022/10/25 23:10:04;;;;;;;1.52;1.10;;;;;;;;;;10490445;28;20041;-79
2022/10/25 23:15:10;;;;;;;5.93;1.25;;;;;;;;;;10495621;28;20041;-78
2022/10/25 23:20:13;;;;;;;4.70;1.13;;;;;;;;;;10468072;28;20165;-80
2022/10/25 23:25:16;;;;;;;2.90;1.10;;;;;;;;;;10483367;28;20028;-79
2022/10/25 23:30:21;;;;;;;2.60;0.80;;;;;;;;;;10489310;28;20044;-79
2022/10/25 23:35:24;;;;;;;0.75;0.75;;;;;;;;;;10487116;28;20044;-80
2022/10/25 23:40:30;;;;;;;1.92;0.77;;;;;;;;;;10491104;28;20044;-80
2022/10/25 23:45:34;;;;;;;2.53;1.00;;;;;;;;;;10492392;28;20039;-79
2022/10/25 23:50:38;;;;;;;4.78;1.38;;;;;;;;;;10491603;28;20271;-78
2022/10/25 23:55:41;;;;;;;5.68;1.08;;;;;;;;;;10506236;28;20680;-79
